Time;durP1;ratioP1;P1;durP2;ratioP2;P2;SDS_P1;SDS_P2;PMS_P1;PMS_P2;Temp;Humidity;BMP_temperature;BMP_pressure;BME280_temperature;BME280_humidity;BME280_pressure;Samples;Min_cycle;Max_cycle;Signal;HPM_P1;HPM_P2
2023/02/28 00:00:21;;;;;;;5.00;3.90;;;;;;;-0.50;57.71;100523.77;107500;1253;75101;-40
2023/02/28 00:02:50;;;;;;;8.30;4.70;;;;;;;-0.52;57.44;100526.15;107518;1254;70625;-40
2023/02/28 00:05:22;;;;;;;7.40;4.80;;;;;;;-0.54;57.44;100527.38;106774;1254;1003439;-40
2023/02/28 00:07:52;;;;;;;5.70;4.70;;;;;;;-0.55;57.33;100530.30;106746;1254;1003755;-40
2023/02/28 00:10:26;;;;;;;6.50;4.90;;;;;;;-0.59;57.30;100529.95;106784;1254;1003168;-40
2023/02/28 00:13:00;;;;;;;6.90;4.80;;;;;;;-0.62;57.51;100535.23;107505;1253;74777;-40
2023/02/28 00:15:28;;;;;;;8.30;5.00;;;;;;;-0.64;57.22;100539.13;107474;1254;69953;-40
2023/02/28 00:17:57;;;;;;;6.10;4.50;;;;;;;-0.63;57.35;100543.77;106759;1253;1003052;-40
2023/02/28 00:20:26;;;;;;;8.40;5.10;;;;;;;-0.63;57.39;100547.02;107486;1253;60613;-40
2023/02/28 00:22:55;;;;;;;7.40;4.70;;;;;;;-0.59;57.68;100546.62;107468;1255;61508;-40
2023/02/28 00:25:26;;;;;;;7.70;4.70;;;;;;;-0.53;57.52;100548.14;107405;1257;74858;-40
2023/02/28 00:27:55;;;;;;;7.50;4.90;;;;;;;-0.49;57.57;100547.63;107369;1255;69866;-40
2023/02/28 00:30:23;;;;;;;5.10;3.70;;;;;;;-0.50;57.43;100546.52;107397;1253;73799;-40
2023/02/28 00:32:53;;;;;;;5.70;4.10;;;;;;;-0.51;57.13;100544.80;106673;1257;1003601;-40
2023/02/28 00:35:21;;;;;;;6.20;4.60;;;;;;;-0.53;57.28;100541.01;107451;1254;61558;-40
2023/02/28 00:37:50;;;;;;;5.70;4.60;;;;;;;-0.53;57.51;100541.17;107404;1253;183953;-40
2023/02/28 00:42:35;;;;;;;6.40;4.30;;;;;;;-0.46;57.32;100540.36;104117;1293;601176;-38
2023/02/28 00:45:04;;;;;;;7.10;4.30;;;;;;;-0.41;57.50;100538.94;106651;1267;60781;-38
2023/02/28 00:47:37;;;;;;;6.00;4.10;;;;;;;-0.35;57.01;100542.81;106636;1266;61494;-39
2023/02/28 00:50:08;;;;;;;5.80;4.40;;;;;;;-0.34;56.77;100538.03;106799;1266;71271;-39
2023/02/28 00:52:37;;;;;;;5.40;4.00;;;;;;;-0.33;56.76;100536.64;106798;1267;70094;-40
2023/02/28 00:55:06;;;;;;;5.70;4.40;;;;;;;-0.32;56.59;100533.13;106635;1264;163264;-40
2023/02/28 00:57:34;;;;;;;6.10;4.00;;;;;;;-0.34;56.34;100529.30;106133;1264;1003778;-40
2023/02/28 01:00:05;;;;;;;6.30;4.60;;;;;;;-0.37;56.40;100527.52;106133;1264;1003274;-39
2023/02/28 01:02:34;;;;;;;5.50;4.40;;;;;;;-0.38;56.38;100522.61;106857;1268;72279;-40
2023/02/28 01:05:06;;;;;;;7.90;4.60;;;;;;;-0.41;56.61;100525.09;106124;1269;1002666;-39
2023/02/28 01:07:35;;;;;;;4.70;3.80;;;;;;;-0.45;56.64;100527.63;106890;1267;73482;-40
2023/02/28 01:10:04;;;;;;;6.50;4.60;;;;;;;-0.48;56.75;100529.63;106809;1264;60655;-40
2023/02/28 01:12:32;;;;;;;5.80;4.10;;;;;;;-0.50;56.88;100529.15;106747;1264;59699;-40
2023/02/28 01:15:01;;;;;;;7.80;5.10;;;;;;;-0.52;56.88;100531.73;106717;1264;73291;-40
2023/02/28 01:17:30;;;;;;;6.20;4.30;;;;;;;-0.55;56.78;100534.93;106722;1267;69614;-40
2023/02/28 01:20:01;;;;;;;9.30;4.70;;;;;;;-0.59;56.93;100537.30;106707;1264;73558;-40
2023/02/28 01:22:30;;;;;;;4.40;3.50;;;;;;;-0.61;57.24;100536.48;106756;1267;60583;-39
2023/02/28 01:24:59;;;;;;;6.50;4.60;;;;;;;-0.60;57.25;100536.97;106737;1264;61284;-39
2023/02/28 01:27:28;;;;;;;7.70;4.70;;;;;;;-0.57;57.25;100539.45;106758;1263;74037;-40
2023/02/28 01:30:02;;;;;;;8.30;4.80;;;;;;;-0.57;57.20;100538.32;106830;1267;69948;-39
2023/02/28 01:32:30;;;;;;;7.20;5.30;;;;;;;-0.56;57.14;100535.73;106866;1264;72719;-40
2023/02/28 01:34:59;;;;;;;7.90;5.70;;;;;;;-0.55;57.23;100536.20;106805;1264;60207;-40
2023/02/28 01:37:28;;;;;;;5.70;4.50;;;;;;;-0.55;57.00;100536.79;106797;1269;60174;-40
2023/02/28 01:39:56;;;;;;;7.10;4.40;;;;;;;-0.58;56.93;100537.84;106809;1264;74193;-39
2023/02/28 01:42:25;;;;;;;7.30;4.60;;;;;;;-0.59;57.04;100537.45;106875;1264;69887;-40
2023/02/28 01:45:23;;;;;;;6.70;4.90;;;;;;;-0.56;56.95;100540.61;106828;1264;73520;-40
2023/02/28 01:47:54;;;;;;;6.60;5.10;;;;;;;-0.52;56.83;100544.64;106820;1267;60776;-39
2023/02/28 01:50:25;;;;;;;6.40;4.80;;;;;;;-0.53;56.79;100543.19;106096;1264;1003064;-40
2023/02/28 01:52:54;;;;;;;7.00;4.70;;;;;;;-0.53;56.89;100545.70;106028;1264;1003266;-40
2023/02/28 01:55:28;;;;;;;6.90;5.10;;;;;;;-0.52;57.22;100545.76;106726;1267;69681;-40
2023/02/28 01:58:01;;;;;;;8.30;5.50;;;;;;;-0.50;57.41;100545.19;106729;1264;73941;-40
2023/02/28 02:00:30;;;;;;;7.80;5.90;;;;;;;-0.47;57.23;100544.46;106767;1264;60800;-40
2023/02/28 02:03:04;;;;;;;8.20;5.50;;;;;;;-0.42;57.48;100545.08;106762;1264;61345;-40
2023/02/28 02:05:34;;;;;;;6.90;5.10;;;;;;;-0.37;57.24;100547.92;106740;1264;74223;-40
2023/02/28 02:08:06;;;;;;;8.40;4.80;;;;;;;-0.36;57.12;100556.34;106751;1264;70590;-40
2023/02/28 02:10:41;;;;;;;8.60;5.10;;;;;;;-0.36;57.11;100552.83;106861;1264;73804;-40
2023/02/28 02:13:13;;;;;;;6.20;4.60;;;;;;;-0.38;57.30;100554.36;106767;1269;61158;-40
2023/02/28 02:15:53;;;;;;;8.00;4.80;;;;;;;-0.42;57.13;100554.54;106791;1264;59825;-40
2023/02/28 02:18:28;;;;;;;7.90;4.70;;;;;;;-0.54;56.97;100539.89;106804;1264;74260;-40
2023/02/28 02:21:12;;;;;;;8.10;5.00;;;;;;;-0.46;57.20;100556.83;106819;1263;69768;-40
2023/02/28 02:23:59;;;;;;;8.10;5.20;;;;;;;-0.46;57.18;100558.73;106814;1264;73520;-40
2023/02/28 02:26:34;;;;;;;7.70;5.40;;;;;;;-0.47;57.21;100560.60;106800;1263;59746;-40
2023/02/28 02:29:42;;;;;;;9.10;5.40;;;;;;;-0.46;57.37;100558.52;106815;1264;61495;-40
2023/02/28 02:32:16;;;;;;;6.60;4.80;;;;;;;-0.46;57.22;100554.91;106846;1267;73923;-40
2023/02/28 02:35:29;;;;;;;5.50;4.30;;;;;;;-0.49;57.08;100560.27;106834;1264;69143;-40
2023/02/28 02:38:22;;;;;;;6.70;4.30;;;;;;;-0.53;56.70;100557.73;105658;1270;1002999;-40
2023/02/28 02:41:03;;;;;;;6.20;4.20;;;;;;;-0.60;56.76;100563.66;106741;1264;60806;-40
2023/02/28 02:43:35;;;;;;;5.10;4.00;;;;;;;-0.61;56.76;100570.89;106832;1264;61250;-40
2023/02/28 02:46:12;;;;;;;5.90;4.40;;;;;;;-0.60;56.95;100573.99;106869;1264;73927;-40
2023/02/28 02:48:40;;;;;;;6.10;4.30;;;;;;;-0.60;56.82;100572.23;106898;1263;69840;-40
2023/02/28 02:51:17;;;;;;;5.50;3.90;;;;;;;-0.62;57.01;100575.30;106666;1264;73315;-40
2023/02/28 02:53:51;;;;;;;6.40;4.60;;;;;;;-0.62;56.86;100577.44;106773;1263;59659;-40
2023/02/28 02:56:23;;;;;;;6.80;4.70;;;;;;;-0.64;56.85;100575.51;106835;1264;59987;-40
2023/02/28 02:58:51;;;;;;;6.50;4.40;;;;;;;-0.65;57.21;100581.04;106754;1264;72372;-40
2023/02/28 03:01:27;;;;;;;6.90;4.40;;;;;;;-0.67;57.16;100580.65;106751;1264;70069;-40
2023/02/28 03:04:05;;;;;;;6.80;4.60;;;;;;;-0.67;57.59;100578.31;106869;1264;73912;-40
2023/02/28 03:06:34;;;;;;;5.80;4.70;;;;;;;-0.69;57.71;100579.53;106803;1264;60790;-40
2023/02/28 03:09:04;;;;;;;6.60;4.60;;;;;;;-0.70;57.68;100582.48;106853;1264;61287;-40
2023/02/28 03:11:33;;;;;;;5.70;3.50;;;;;;;-0.71;57.49;100586.21;106843;1264;73857;-40
2023/02/28 03:14:30;;;;;;;5.50;4.40;;;;;;;-0.71;57.72;100587.23;106773;1264;69644;-40
2023/02/28 03:17:23;;;;;;;7.70;4.40;;;;;;;-0.74;57.48;100586.45;106741;1264;72874;-40
2023/02/28 03:20:03;;;;;;;6.20;4.40;;;;;;;-0.80;57.24;100587.74;106021;1263;1003487;-40
2023/02/28 03:22:57;;;;;;;7.60;4.80;;;;;;;-0.86;57.56;100590.79;106683;1264;61703;-40
2023/02/28 03:25:30;;;;;;;6.60;4.50;;;;;;;-0.90;57.42;100593.89;106727;1264;74226;-40
2023/02/28 03:28:02;;;;;;;6.00;4.50;;;;;;;-0.92;57.75;100602.28;106714;1263;69522;-40
2023/02/28 03:30:39;;;;;;;8.10;4.70;;;;;;;-0.91;57.40;100608.31;106800;1264;73999;-40
2023/02/28 03:33:12;;;;;;;5.60;4.10;;;;;;;-0.94;57.33;100608.77;106096;1264;1003267;-40
2023/02/28 03:36:02;;;;;;;4.90;3.70;;;;;;;-0.99;57.46;100610.59;106772;1264;61192;-40
2023/02/28 03:38:34;;;;;;;6.50;4.60;;;;;;;-1.04;57.62;100612.66;106072;1264;1002908;-41
2023/02/28 03:41:17;;;;;;;5.90;4.30;;;;;;;-1.06;57.62;100618.98;107027;1260;69617;-41
2023/02/28 03:43:53;;;;;;;7.00;4.70;;;;;;;-1.04;57.62;100619.17;106276;1261;1003050;-41
2023/02/28 03:46:24;;;;;;;6.30;4.60;;;;;;;-1.03;57.62;100620.02;106274;1260;1003589;-40
2023/02/28 03:49:04;;;;;;;5.60;4.30;;;;;;;-1.04;57.39;100622.02;107026;1260;59758;-40
2023/02/28 03:51:35;;;;;;;8.80;5.00;;;;;;;-1.02;57.66;100619.23;107011;1264;74341;-41
2023/02/28 03:54:07;;;;;;;7.70;4.90;;;;;;;-0.98;57.66;100617.50;107025;1260;69032;-41
2023/02/28 03:56:43;;;;;;;8.60;4.70;;;;;;;-0.96;57.52;100612.04;107014;1260;73841;-40
2023/02/28 03:59:16;;;;;;;7.60;4.70;;;;;;;-1.00;57.61;100615.95;106980;1260;60363;-39
2023/02/28 04:01:46;;;;;;;6.20;4.50;;;;;;;-1.05;57.54;100616.38;106872;1260;61566;-39
2023/02/28 04:04:15;;;;;;;5.30;4.30;;;;;;;-1.10;57.50;100615.70;106929;1261;72718;-40
2023/02/28 04:06:50;;;;;;;7.40;4.40;;;;;;;-1.13;57.70;100618.91;106856;1263;69381;-40
2023/02/28 04:09:18;;;;;;;6.40;4.30;;;;;;;-1.15;57.82;100617.39;106927;1264;72965;-40
2023/02/28 04:11:51;;;;;;;6.50;4.50;;;;;;;-1.13;57.83;100621.15;106808;1264;61018;-39
2023/02/28 04:14:20;;;;;;;4.70;3.70;;;;;;;-1.11;57.69;100625.16;106869;1263;61225;-39
2023/02/28 04:16:48;;;;;;;6.80;4.70;;;;;;;-1.10;57.78;100620.33;106858;1262;74190;-40
2023/02/28 04:19:16;;;;;;;7.00;4.90;;;;;;;-1.07;57.85;100618.11;106861;1262;69978;-40
2023/02/28 04:21:47;;;;;;;8.30;5.60;;;;;;;-1.04;57.97;100614.36;106833;1262;71921;-39
2023/02/28 04:24:23;;;;;;;8.10;5.10;;;;;;;-0.98;57.97;100615.65;106885;1264;59669;-40
2023/02/28 04:26:55;;;;;;;5.00;3.70;;;;;;;-0.98;57.94;100615.06;106807;1266;61543;-39
2023/02/28 04:29:28;;;;;;;6.10;4.30;;;;;;;-0.98;58.00;100615.27;106831;1262;74222;-39
2023/02/28 04:32:00;;;;;;;5.40;4.00;;;;;;;-1.01;57.87;100613.17;106915;1262;68620;-39
2023/02/28 04:34:30;;;;;;;6.80;4.20;;;;;;;-1.02;57.89;100613.80;106837;1262;74135;-39
2023/02/28 04:37:00;;;;;;;5.00;3.30;;;;;;;-1.04;58.03;100613.63;106857;1264;59764;-40
2023/02/28 04:39:45;;;;;;;7.10;4.60;;;;;;;-1.04;58.16;100613.73;107055;1259;61522;-40
2023/02/28 04:42:14;;;;;;;6.30;3.90;;;;;;;-1.06;58.20;100614.83;106317;1259;1003691;-40
2023/02/28 04:44:44;;;;;;;6.60;4.20;;;;;;;-1.08;58.04;100620.23;106371;1259;1002966;-40
2023/02/28 04:47:13;;;;;;;6.40;4.00;;;;;;;-1.08;57.84;100625.08;107091;1260;73732;-39
2023/02/28 04:49:42;;;;;;;5.50;3.80;;;;;;;-1.11;57.81;100629.73;107108;1259;60616;-39
2023/02/28 04:52:11;;;;;;;7.70;4.40;;;;;;;-1.13;57.89;100629.73;107094;1259;59747;-41
2023/02/28 04:54:41;;;;;;;5.70;3.90;;;;;;;-1.16;57.98;100632.19;107120;1259;74199;-40
2023/02/28 04:57:10;;;;;;;5.30;4.20;;;;;;;-1.24;58.03;100630.55;107170;1262;68828;-40
2023/02/28 04:59:39;;;;;;;5.90;4.40;;;;;;;-1.33;58.05;100632.08;106408;1259;1002920;-40
2023/02/28 05:02:08;;;;;;;7.00;4.50;;;;;;;-1.40;58.41;100630.70;107121;1258;60400;-40
2023/02/28 05:04:37;;;;;;;6.80;4.80;;;;;;;-1.43;58.54;100635.89;107129;1259;61570;-41
2023/02/28 05:07:05;;;;;;;8.50;4.60;;;;;;;-1.45;58.94;100638.95;107149;1258;75351;-40
2023/02/28 05:09:34;;;;;;;7.80;4.30;;;;;;;-1.45;59.09;100642.98;107165;1259;69818;-40
2023/02/28 05:12:06;;;;;;;7.60;4.90;;;;;;;-1.45;59.23;100642.57;107145;1259;73705;-40
2023/02/28 05:14:36;;;;;;;9.40;4.60;;;;;;;-1.47;59.17;100651.32;107152;1259;61234;-41
2023/02/28 05:17:05;;;;;;;6.20;4.80;;;;;;;-1.49;59.07;100649.91;107150;1259;61529;-40
2023/02/28 05:19:35;;;;;;;8.70;4.80;;;;;;;-1.51;58.84;100648.99;107013;1263;74823;-40
2023/02/28 05:22:03;;;;;;;8.60;4.40;;;;;;;-1.52;59.00;100648.92;107125;1259;68972;-40
2023/02/28 05:24:39;;;;;;;8.30;5.00;;;;;;;-1.54;58.94;100651.55;107072;1259;73130;-41
2023/02/28 05:27:08;;;;;;;8.40;5.00;;;;;;;-1.54;59.15;100655.55;107098;1259;61375;-40
2023/02/28 05:29:41;;;;;;;10.80;5.80;;;;;;;-1.52;59.12;100654.23;106913;1260;61546;-40
2023/02/28 05:32:13;;;;;;;9.00;6.00;;;;;;;-1.55;59.08;100658.08;107055;1261;74976;-40
2023/02/28 05:34:41;;;;;;;8.00;5.00;;;;;;;-1.54;59.33;100658.20;107098;1259;69943;-40
2023/02/28 05:37:13;;;;;;;8.10;5.30;;;;;;;-1.55;59.20;100664.90;106386;1259;1002996;-40
2023/02/28 05:39:42;;;;;;;6.90;4.60;;;;;;;-1.54;59.49;100665.83;107148;1259;61244;-41
2023/02/28 05:42:13;;;;;;;7.00;4.60;;;;;;;-1.52;59.32;100664.03;107174;1258;61236;-40
2023/02/28 05:44:43;;;;;;;6.60;4.30;;;;;;;-1.50;59.23;100669.59;107107;1258;75057;-40
2023/02/28 05:47:15;;;;;;;7.70;4.70;;;;;;;-1.50;59.20;100667.98;107130;1259;70913;-40
2023/02/28 05:49:44;;;;;;;7.60;4.60;;;;;;;-1.49;59.38;100668.21;107126;1262;73834;-40
2023/02/28 05:52:14;;;;;;;7.80;4.30;;;;;;;-1.49;59.27;100673.21;107127;1259;61379;-40
2023/02/28 05:54:42;;;;;;;9.30;5.30;;;;;;;-1.47;59.50;100675.05;107139;1259;61430;-40
2023/02/28 05:57:10;;;;;;;8.90;5.40;;;;;;;-1.45;59.25;100677.52;107119;1259;75147;-40
2023/02/28 05:59:51;;;;;;;7.90;5.10;;;;;;;-1.58;59.34;100657.96;107029;1258;69966;-40
2023/02/28 06:02:20;;;;;;;8.30;5.10;;;;;;;-1.41;59.47;100679.33;107058;1259;73827;-40
2023/02/28 06:04:48;;;;;;;8.50;5.10;;;;;;;-1.36;59.33;100684.05;107085;1258;61360;-40
2023/02/28 06:07:17;;;;;;;8.00;4.90;;;;;;;-1.36;59.09;100683.48;107095;1258;61196;-40
2023/02/28 06:09:46;;;;;;;8.30;5.20;;;;;;;-1.39;59.22;100684.55;107159;1261;75024;-40
2023/02/28 06:12:15;;;;;;;7.40;5.20;;;;;;;-1.36;59.36;100682.45;107073;1259;69843;-40
2023/02/28 06:14:43;;;;;;;6.80;4.00;;;;;;;-1.33;59.29;100681.23;107082;1259;73938;-40
2023/02/28 06:17:16;;;;;;;7.10;5.00;;;;;;;-1.35;59.13;100683.59;106285;1259;1003139;-40
2023/02/28 06:19:46;;;;;;;6.80;4.90;;;;;;;-1.38;59.05;100685.17;107069;1258;60655;-40
2023/02/28 06:22:14;;;;;;;6.60;4.90;;;;;;;-1.39;59.20;100684.35;107132;1259;73933;-40
2023/02/28 06:24:43;;;;;;;8.80;5.20;;;;;;;-1.38;59.22;100686.39;107134;1259;69919;-40
2023/02/28 06:27:11;;;;;;;9.30;5.80;;;;;;;-1.36;59.52;100682.68;107143;1259;73827;-40
2023/02/28 06:29:40;;;;;;;5.80;4.60;;;;;;;-1.33;59.64;100684.26;107096;1258;60566;-40
2023/02/28 06:32:09;;;;;;;8.30;5.10;;;;;;;-1.33;59.53;100678.83;107094;1259;61270;-40
2023/02/28 06:34:39;;;;;;;7.80;4.70;;;;;;;-1.32;59.39;100677.67;106378;1259;1003084;-40
2023/02/28 06:37:07;;;;;;;6.70;4.30;;;;;;;-1.32;59.51;100678.19;107126;1263;68944;-39
2023/02/28 06:39:38;;;;;;;7.40;4.70;;;;;;;-1.37;58.93;100672.77;107109;1259;73721;-39
2023/02/28 06:42:07;;;;;;;6.10;4.70;;;;;;;-1.48;58.69;100675.04;107116;1259;61587;-39
2023/02/28 06:44:36;;;;;;;7.10;4.20;;;;;;;-1.59;58.65;100672.73;107102;1259;60501;-39
2023/02/28 06:47:05;;;;;;;6.90;4.40;;;;;;;-1.74;58.67;100669.08;107153;1259;75035;-39
2023/02/28 06:49:38;;;;;;;6.20;4.50;;;;;;;-1.81;59.31;100664.62;107166;1258;68067;-39
2023/02/28 06:52:09;;;;;;;6.80;4.40;;;;;;;-1.83;59.23;100663.80;107148;1259;73391;-39
2023/02/28 06:54:38;;;;;;;6.80;5.00;;;;;;;-1.87;59.23;100665.70;106343;1259;1003031;-39
2023/02/28 06:57:07;;;;;;;4.80;4.10;;;;;;;-1.90;59.44;100661.05;107142;1259;61616;-39
2023/02/28 06:59:36;;;;;;;7.20;5.00;;;;;;;-1.86;59.81;100660.35;107103;1258;73640;-39
2023/02/28 07:02:06;;;;;;;7.30;4.80;;;;;;;-1.78;59.84;100653.86;107131;1259;67854;-39
2023/02/28 07:04:35;;;;;;;8.60;5.30;;;;;;;-1.68;59.94;100650.63;107159;1257;73847;-39
2023/02/28 07:07:07;;;;;;;8.60;5.00;;;;;;;-1.57;60.04;100653.59;107072;1259;61606;-38
2023/02/28 07:09:37;;;;;;;7.30;4.80;;;;;;;-1.48;59.63;100654.71;107065;1259;60480;-38
2023/02/28 07:12:06;;;;;;;6.80;5.00;;;;;;;-1.38;59.82;100657.96;106383;1259;1002661;-39
2023/02/28 07:14:36;;;;;;;9.10;5.30;;;;;;;-1.23;59.94;100654.30;107098;1259;69782;-39
2023/02/28 07:17:07;;;;;;;8.00;5.40;;;;;;;-1.12;59.38;100644.99;106354;1259;1003707;-39
2023/02/28 07:19:39;;;;;;;7.90;4.90;;;;;;;-1.05;59.09;100643.10;107026;1259;61601;-40
2023/02/28 07:22:07;;;;;;;6.60;4.80;;;;;;;-0.97;58.88;100647.33;107123;1259;61733;-40
2023/02/28 07:24:35;;;;;;;7.90;5.20;;;;;;;-0.89;58.23;100647.14;107083;1259;75083;-39
2023/02/28 07:27:04;;;;;;;7.30;5.00;;;;;;;-0.86;57.61;100648.80;107131;1259;69933;-39
2023/02/28 07:29:33;;;;;;;8.30;5.40;;;;;;;-0.87;57.48;100647.20;106370;1259;1003486;-40
2023/02/28 07:32:01;;;;;;;7.60;5.10;;;;;;;-0.87;57.53;100650.45;107069;1259;60521;-39
2023/02/28 07:34:30;;;;;;;7.50;5.20;;;;;;;-0.85;57.57;100653.88;107086;1259;61571;-40
2023/02/28 07:36:59;;;;;;;6.30;4.80;;;;;;;-0.83;57.75;100660.39;107076;1258;75062;-39
2023/02/28 07:39:28;;;;;;;7.70;5.00;;;;;;;-0.77;57.60;100662.36;107066;1258;68751;-39
2023/02/28 07:41:56;;;;;;;6.70;4.80;;;;;;;-0.71;57.19;100665.57;107072;1259;73987;-39
2023/02/28 07:44:26;;;;;;;7.20;5.00;;;;;;;-0.69;56.91;100667.77;107110;1263;60236;-40
2023/02/28 07:46:55;;;;;;;6.30;4.80;;;;;;;-0.71;56.85;100668.39;107073;1258;61633;-39
2023/02/28 07:49:26;;;;;;;8.80;4.80;;;;;;;-0.74;56.37;100672.45;107069;1259;73856;-39
2023/02/28 07:51:54;;;;;;;7.20;5.00;;;;;;;-0.83;56.14;100671.64;107046;1262;69972;-39
2023/02/28 07:54:24;;;;;;;8.20;4.80;;;;;;;-0.90;56.66;100670.13;106983;1259;73597;-39
2023/02/28 07:56:53;;;;;;;7.30;5.20;;;;;;;-0.89;56.84;100668.60;107055;1258;60552;-40
2023/02/28 07:59:22;;;;;;;7.40;5.60;;;;;;;-0.83;57.04;100671.95;107090;1259;61633;-39
2023/02/28 08:01:50;;;;;;;7.30;5.10;;;;;;;-0.76;56.87;100673.63;107144;1258;74052;-40
2023/02/28 08:04:19;;;;;;;9.00;5.00;;;;;;;-0.77;56.03;100671.63;107078;1257;69833;-40
2023/02/28 08:06:59;;;;;;;7.00;4.90;;;;;;;-0.89;56.18;100674.23;107056;1258;72915;-40
2023/02/28 08:09:29;;;;;;;;;;;;;;;-0.98;56.55;100670.48;107159;1257;60682;-40
2023/02/28 08:12:01;;;;;;;8.10;4.60;;;;;;;-1.06;56.98;100665.93;107158;1257;61322;-40
2023/02/28 08:14:30;;;;;;;7.60;4.90;;;;;;;-1.13;56.90;100666.08;107263;1257;75140;-39
2023/02/28 08:16:58;;;;;;;7.60;5.70;;;;;;;-1.18;57.13;100668.23;107252;1257;70202;-39
2023/02/28 08:19:28;;;;;;;7.40;4.30;;;;;;;-1.21;57.26;100671.71;107179;1258;73853;-39
2023/02/28 08:21:56;;;;;;;9.60;5.20;;;;;;;-1.25;56.94;100673.71;107167;1258;61804;-39
2023/02/28 08:24:25;;;;;;;7.00;4.50;;;;;;;-1.26;57.11;100676.35;107227;1257;61548;-40
2023/02/28 08:26:54;;;;;;;7.20;4.90;;;;;;;-1.22;57.14;100671.91;107251;1257;74916;-39
2023/02/28 08:29:23;;;;;;;6.40;4.70;;;;;;;-1.16;57.29;100667.31;107280;1257;70040;-39
2023/02/28 08:31:52;;;;;;;6.80;5.40;;;;;;;-1.10;57.02;100665.14;107224;1257;73865;-39
2023/02/28 08:34:20;;;;;;;7.30;5.20;;;;;;;-1.05;57.12;100666.69;107226;1257;61254;-40
2023/02/28 08:36:49;;;;;;;5.90;4.80;;;;;;;-1.02;56.83;100666.88;107144;1257;60329;-40
2023/02/28 08:39:21;;;;;;;6.70;4.90;;;;;;;-1.07;56.60;100669.48;107080;1257;75091;-40
2023/02/28 08:41:50;;;;;;;6.10;4.90;;;;;;;-1.10;56.48;100660.29;107119;1257;68646;-40
2023/02/28 08:44:34;;;;;;;6.50;4.60;;;;;;;-1.08;56.54;100660.95;107092;1257;73444;-40
2023/02/28 08:47:02;;;;;;;5.70;4.30;;;;;;;-0.96;56.80;100657.08;107108;1261;60335;-40
2023/02/28 08:49:31;;;;;;;6.90;4.30;;;;;;;-0.83;56.36;100657.41;107133;1257;61628;-40
2023/02/28 08:51:59;;;;;;;7.70;4.80;;;;;;;-0.75;56.28;100650.03;107151;1257;74031;-40
2023/02/28 08:54:31;;;;;;;6.30;4.30;;;;;;;-0.48;55.76;100658.24;107209;1262;69606;-40
2023/02/28 08:57:00;;;;;;;7.30;5.10;;;;;;;-0.30;54.76;100656.09;107059;1259;73729;-40
2023/02/28 08:59:29;;;;;;;6.00;4.50;;;;;;;-0.18;54.46;100654.68;107047;1258;60921;-40
2023/02/28 09:02:02;;;;;;;6.90;4.40;;;;;;;-0.06;54.04;100658.06;107076;1259;61637;-40
2023/02/28 09:04:31;;;;;;;5.50;4.10;;;;;;;0.10;54.06;100656.50;107065;1259;75112;-40
2023/02/28 09:06:59;;;;;;;8.30;5.60;;;;;;;0.19;53.77;100663.67;107067;1259;69358;-40
2023/02/28 09:09:28;;;;;;;9.20;6.30;;;;;;;0.23;53.42;100663.23;107065;1259;73962;-40
2023/02/28 09:11:56;;;;;;;8.40;5.90;;;;;;;0.29;53.62;100663.42;107017;1259;59567;-40
2023/02/28 09:14:28;;;;;;;7.30;5.30;;;;;;;0.37;53.33;100660.46;107049;1259;61229;-40
2023/02/28 09:16:56;;;;;;;7.40;5.10;;;;;;;0.33;52.18;100659.12;107037;1259;75022;-40
2023/02/28 09:19:25;;;;;;;6.10;4.70;;;;;;;0.21;52.29;100659.17;106288;1259;1003588;-40
2023/02/28 09:21:53;;;;;;;7.20;4.60;;;;;;;0.17;52.69;100659.47;106994;1259;73768;-40
2023/02/28 09:24:22;;;;;;;6.80;5.00;;;;;;;0.27;52.69;100661.06;107019;1259;60657;-40
2023/02/28 09:26:51;;;;;;;7.50;4.90;;;;;;;0.48;53.13;100659.17;107018;1259;60602;-40
2023/02/28 09:29:33;;;;;;;6.20;4.70;;;;;;;0.83;52.39;100660.52;107028;1259;74423;-40
2023/02/28 09:32:02;;;;;;;6.60;4.70;;;;;;;1.05;51.86;100657.36;107055;1259;68573;-40
2023/02/28 09:34:31;;;;;;;7.40;4.80;;;;;;;1.23;52.02;100654.35;106958;1259;73895;-40
2023/02/28 09:36:59;;;;;;;8.10;5.20;;;;;;;1.46;51.50;100656.27;107003;1257;60748;-40
2023/02/28 09:39:28;;;;;;;7.20;5.40;;;;;;;1.63;50.70;100652.10;107242;1257;61538;-40
2023/02/28 09:41:57;;;;;;;8.70;5.40;;;;;;;1.80;50.67;100645.02;107107;1258;75028;-40
2023/02/28 09:44:32;;;;;;;7.50;5.40;;;;;;;2.03;50.36;100645.84;107029;1258;66398;-41
2023/02/28 09:47:05;;;;;;;6.70;5.20;;;;;;;2.14;49.33;100643.39;107342;1259;71691;-41
2023/02/28 09:49:43;;;;;;;6.10;5.00;;;;;;;2.02;48.53;100639.25;107023;1259;59643;-40
2023/02/28 09:52:19;;;;;;;7.80;5.20;;;;;;;1.76;48.98;100634.88;106955;1259;61539;-40
2023/02/28 09:54:47;;;;;;;8.00;5.20;;;;;;;1.57;49.99;100630.25;106956;1259;75059;-41
2023/02/28 09:57:42;;;;;;;7.10;5.10;;;;;;;1.57;50.40;100629.33;107049;1259;69937;-40
2023/02/28 10:00:24;;;;;;;8.40;6.30;;;;;;;1.72;50.48;100619.43;106946;1259;72757;-41
2023/02/28 10:03:10;;;;;;;8.00;5.60;;;;;;;1.87;50.20;100613.95;106997;1259;60706;-41
2023/02/28 10:06:03;;;;;;;8.40;5.30;;;;;;;2.04;49.62;100611.11;107038;1259;61203;-40
2023/02/28 10:08:42;;;;;;;8.20;5.70;;;;;;;2.18;49.69;100602.35;107081;1259;75010;-39
2023/02/28 10:11:16;;;;;;;8.30;5.80;;;;;;;2.34;49.09;100600.84;106999;1259;69765;-39
2023/02/28 10:14:02;;;;;;;7.20;5.60;;;;;;;2.41;48.56;100598.55;106887;1259;73989;-40
2023/02/28 10:16:38;;;;;;;8.50;5.90;;;;;;;2.49;47.54;100594.40;106873;1259;60419;-40
2023/02/28 10:19:14;;;;;;;8.60;6.10;;;;;;;2.49;47.93;100587.77;107065;1259;60371;-40
2023/02/28 10:21:58;;;;;;;8.00;6.00;;;;;;;2.62;47.87;100589.72;107007;1258;75065;-40
2023/02/28 10:24:46;;;;;;;7.90;6.00;;;;;;;2.78;47.25;100592.78;107011;1259;69943;-40
2023/02/28 10:27:21;;;;;;;8.80;6.30;;;;;;;2.91;47.37;100589.86;106982;1258;73003;-40
2023/02/28 10:29:53;;;;;;;9.60;6.70;;;;;;;3.07;47.33;100593.60;107070;1259;60399;-40
2023/02/28 10:32:45;;;;;;;9.50;6.80;;;;;;;3.30;47.06;100590.09;107098;1259;60351;-40
2023/02/28 10:35:19;;;;;;;9.00;7.10;;;;;;;3.52;45.77;100584.74;107027;1259;75117;-40
2023/02/28 10:37:56;;;;;;;8.40;6.60;;;;;;;3.57;45.38;100585.89;107053;1258;69694;-40
2023/02/28 10:40:26;;;;;;;8.60;6.70;;;;;;;3.66;45.37;100586.86;107065;1259;72180;-40
2023/02/28 10:43:03;;;;;;;10.40;6.60;;;;;;;3.84;44.97;100575.25;107068;1259;60752;-40
2023/02/28 10:45:34;;;;;;;10.30;6.40;;;;;;;3.94;45.55;100577.95;107106;1259;61515;-41
2023/02/28 10:48:15;;;;;;;10.40;6.70;;;;;;;4.13;45.24;100573.73;107160;1259;73963;-40
2023/02/28 10:50:45;;;;;;;8.50;6.60;;;;;;;4.31;44.49;100565.52;107044;1259;68833;-40
2023/02/28 10:53:25;;;;;;;9.80;7.20;;;;;;;4.36;43.61;100567.55;107070;1259;74276;-40
2023/02/28 10:56:07;;;;;;;11.70;6.80;;;;;;;4.39;43.70;100573.58;107069;1264;60477;-40
2023/02/28 10:58:51;;;;;;;13.30;6.80;;;;;;;4.49;43.30;100567.11;107045;1259;61053;-40
2023/02/28 11:01:23;;;;;;;8.10;6.60;;;;;;;4.51;43.30;100567.83;107044;1259;74755;-40
2023/02/28 11:03:52;;;;;;;9.80;6.90;;;;;;;4.55;44.13;100568.04;107029;1259;69929;-40
2023/02/28 11:06:26;;;;;;;7.60;6.20;;;;;;;4.68;43.73;100560.55;107010;1263;73539;-40
2023/02/28 11:08:57;;;;;;;9.00;6.00;;;;;;;4.86;42.88;100555.19;106971;1257;60502;-40
2023/02/28 11:11:28;;;;;;;8.90;6.10;;;;;;;4.95;42.08;100547.85;107191;1257;60523;-40
2023/02/28 11:14:04;;;;;;;9.00;6.60;;;;;;;4.98;42.85;100542.97;107204;1257;74714;-40
2023/02/28 11:16:35;;;;;;;8.90;6.30;;;;;;;5.07;43.07;100535.88;107194;1257;69688;-40
2023/02/28 11:19:06;;;;;;;9.10;6.60;;;;;;;5.19;41.31;100535.48;107254;1257;72707;-40
2023/02/28 11:21:39;;;;;;;8.20;6.70;;;;;;;5.10;40.97;100534.81;107264;1261;60821;-41
2023/02/28 11:24:23;;;;;;;8.50;6.10;;;;;;;5.00;41.94;100535.52;107131;1257;61772;-40
2023/02/28 11:26:52;;;;;;;8.00;6.00;;;;;;;5.11;41.63;100536.79;106349;1257;1003076;-40
2023/02/28 11:29:46;;;;;;;8.30;6.20;;;;;;;5.33;41.52;100532.79;107015;1259;70317;-40
2023/02/28 11:32:21;;;;;;;7.70;6.00;;;;;;;5.54;40.65;100532.10;107071;1257;73875;-40
2023/02/28 11:35:17;;;;;;;7.70;5.90;;;;;;;5.61;41.28;100530.89;107234;1257;60542;-40
2023/02/28 11:37:46;;;;;;;11.00;6.70;;;;;;;5.67;39.52;100527.08;107055;1257;61544;-40
2023/02/28 11:40:16;;;;;;;10.20;7.10;;;;;;;5.51;39.66;100528.29;107196;1257;75026;-40
2023/02/28 11:43:22;;;;;;;10.40;7.20;;;;;;;5.31;39.74;100527.20;107117;1259;69930;-40